createdAt,value
2022-11-28T00:01:37.059Z,22.45
2022-11-28T00:04:05.927Z,26.70
2022-11-28T00:06:36.793Z,24.25
2022-11-28T00:09:05.049Z,26.73
2022-11-28T00:11:32.895Z,28.13
2022-11-28T00:14:00.913Z,23.73
2022-11-28T00:16:30.141Z,21.80
2022-11-28T00:19:00.826Z,23.10
2022-11-28T00:21:29.011Z,21.50
2022-11-28T00:23:56.832Z,24.90
2022-11-28T00:26:27.191Z,26.35
2022-11-28T00:28:56.531Z,22.83
2022-11-28T00:31:27.268Z,21.48
2022-11-28T00:33:56.974Z,23.90
2022-11-28T00:36:25.291Z,22.60
2022-11-28T00:38:53.411Z,22.38
2022-11-28T00:41:23.580Z,22.45
2022-11-28T00:43:52.629Z,26.35
2022-11-28T00:46:22.073Z,25.08
2022-11-28T00:48:51.009Z,25.70
2022-11-28T00:51:21.836Z,30.23
2022-11-28T00:53:51.701Z,29.10
2022-11-28T00:56:20.986Z,23.52
2022-11-28T00:58:49.629Z,21.92
2022-11-28T01:01:19.843Z,22.05
2022-11-28T01:03:49.522Z,19.73
2022-11-28T01:06:23.800Z,24.55
2022-11-28T01:08:52.139Z,20.83
2022-11-28T01:11:20.470Z,29.02
2022-11-28T01:13:48.951Z,22.33
2022-11-28T01:16:16.918Z,23.90
2022-11-28T01:18:44.944Z,28.35
2022-11-28T01:21:12.817Z,23.38
2022-11-28T01:23:42.004Z,22.98
2022-11-28T01:26:10.924Z,30.00
2022-11-28T01:28:38.767Z,25.83
2022-11-28T01:31:07.642Z,23.67
2022-11-28T01:33:35.491Z,22.45
2022-11-28T01:36:04.243Z,29.33
2022-11-28T01:38:32.091Z,27.73
2022-11-28T01:41:02.122Z,33.10
2022-11-28T01:43:30.045Z,25.58
2022-11-28T01:45:58.343Z,26.13
2022-11-28T01:48:28.613Z,21.48
2022-11-28T01:50:59.320Z,27.02
2022-11-28T01:53:29.858Z,25.70
2022-11-28T01:56:00.885Z,32.95
2022-11-28T01:58:31.866Z,26.90
2022-11-28T02:01:00.611Z,22.50
2022-11-28T02:03:33.437Z,25.33
2022-11-28T02:06:01.699Z,27.63
2022-11-28T02:08:34.368Z,26.10
2022-11-28T02:11:20.396Z,26.45
2022-11-28T02:13:59.383Z,27.40
2022-11-28T02:16:53.217Z,27.92
2022-11-28T02:22:09.575Z,27.05
2022-11-28T02:25:04.899Z,27.88
2022-11-28T02:28:13.629Z,24.95
2022-11-28T02:30:58.794Z,25.35
2022-11-28T02:33:32.964Z,26.48
2022-11-28T02:36:11.901Z,24.98
2022-11-28T02:38:52.267Z,21.63
2022-11-28T02:41:29.348Z,24.02
2022-11-28T02:44:07.544Z,26.38
2022-11-28T02:46:42.493Z,25.17
2022-11-28T02:49:17.211Z,21.67
2022-11-28T02:51:50.158Z,24.27
2022-11-28T02:54:19.647Z,24.48
2022-11-28T02:56:48.691Z,23.98
2022-11-28T02:59:32.178Z,22.50
2022-11-28T03:04:38.229Z,20.92
2022-11-28T03:07:13.803Z,22.27
2022-11-28T03:09:57.169Z,33.63
2022-11-28T03:12:32.916Z,22.83
2022-11-28T03:15:03.583Z,22.33
2022-11-28T03:17:40.424Z,24.98
2022-11-28T03:20:19.681Z,28.20
2022-11-28T03:23:08.612Z,24.77
2022-11-28T03:25:42.148Z,27.75
2022-11-28T03:28:15.388Z,24.58
2022-11-28T03:33:17.139Z,23.45
2022-11-28T03:35:50.277Z,22.90
2022-11-28T03:38:22.691Z,25.50
2022-11-28T03:40:54.166Z,30.10
2022-11-28T03:43:27.653Z,26.77
2022-11-28T03:46:02.924Z,22.95
2022-11-28T03:48:33.826Z,25.35
2022-11-28T03:51:08.621Z,24.20
2022-11-28T03:53:43.403Z,27.30
2022-11-28T03:56:15.868Z,22.38
2022-11-28T03:58:50.749Z,24.93
2022-11-28T04:01:29.567Z,27.45
2022-11-28T04:04:07.093Z,24.48
2022-11-28T04:06:45.559Z,25.70
2022-11-28T04:09:19.590Z,24.90
2022-11-28T04:11:52.953Z,25.05
2022-11-28T04:14:25.876Z,27.50
2022-11-28T04:16:59.287Z,27.67
2022-11-28T04:19:32.672Z,27.73
2022-11-28T04:22:05.893Z,24.52
2022-11-28T04:27:09.654Z,30.00
2022-11-28T04:29:43.521Z,24.00
2022-11-28T04:32:14.573Z,29.77
2022-11-28T04:34:46.189Z,28.23
2022-11-28T04:37:17.046Z,27.63
2022-11-28T04:39:48.201Z,29.02
2022-11-28T04:42:20.311Z,33.95
2022-11-28T04:44:52.446Z,30.85
2022-11-28T04:47:20.670Z,24.83
2022-11-28T04:49:48.565Z,26.02
2022-11-28T04:52:24.300Z,25.40
2022-11-28T04:54:58.393Z,31.10
2022-11-28T04:57:31.674Z,26.05
2022-11-28T05:02:30.539Z,24.95
2022-11-28T05:04:59.658Z,24.98
2022-11-28T05:07:28.914Z,27.50
2022-11-28T05:09:57.683Z,33.85
2022-11-28T05:12:25.568Z,28.15
2022-11-28T05:14:53.437Z,26.40
2022-11-28T05:17:21.255Z,25.80
2022-11-28T05:19:49.083Z,27.17
2022-11-28T05:22:16.922Z,28.27
2022-11-28T05:24:46.290Z,25.20
2022-11-28T05:27:14.319Z,24.30
2022-11-28T05:29:48.057Z,28.92
2022-11-28T05:32:19.655Z,30.00
2022-11-28T05:34:47.507Z,24.73
2022-11-28T05:37:15.379Z,26.40
2022-11-28T05:39:43.434Z,26.02
2022-11-28T05:42:12.769Z,32.83
2022-11-28T05:44:40.725Z,26.17
2022-11-28T05:47:08.555Z,26.27
2022-11-28T05:49:36.423Z,23.05
2022-11-28T05:52:04.298Z,27.27
2022-11-28T05:54:32.174Z,29.23
2022-11-28T05:57:00.014Z,29.98
2022-11-28T05:59:29.265Z,32.83
2022-11-28T06:01:57.134Z,26.88
2022-11-28T06:04:25.073Z,27.58
2022-11-28T06:06:53.678Z,27.48
2022-11-28T06:09:25.660Z,28.73
2022-11-28T06:11:54.255Z,19.67
2022-11-28T06:14:22.134Z,32.08
2022-11-28T06:16:51.406Z,26.17
2022-11-28T06:19:19.532Z,27.70
2022-11-28T06:21:47.561Z,28.42
2022-11-28T06:24:15.402Z,27.77
2022-11-28T06:26:43.205Z,26.98
2022-11-28T06:29:11.086Z,30.33
2022-11-28T06:31:38.947Z,30.10
2022-11-28T06:34:08.195Z,30.00
2022-11-28T06:36:36.195Z,33.28
2022-11-28T06:39:04.096Z,27.80
2022-11-28T06:41:31.935Z,29.80
2022-11-28T06:43:59.790Z,25.80
2022-11-28T06:46:27.637Z,30.55
2022-11-28T06:48:55.548Z,35.63
2022-11-28T06:51:24.749Z,29.70
2022-11-28T06:53:52.602Z,34.47
2022-11-28T06:56:21.281Z,31.98
2022-11-28T06:58:54.467Z,38.58
2022-11-28T07:03:51.598Z,33.75
2022-11-28T07:06:20.335Z,32.85
2022-11-28T07:08:49.708Z,34.38
2022-11-28T07:11:20.335Z,42.88
2022-11-28T07:13:49.355Z,36.65
2022-11-28T07:16:19.178Z,34.22
2022-11-28T07:18:47.416Z,32.90
2022-11-28T07:21:16.080Z,31.80
2022-11-28T07:23:44.771Z,31.00
2022-11-28T07:26:16.605Z,32.17
2022-11-28T07:28:45.868Z,31.02
2022-11-28T07:31:18.232Z,37.10
2022-11-28T07:33:48.742Z,34.63
2022-11-28T07:36:18.807Z,30.92
2022-11-28T07:38:48.069Z,32.88
2022-11-28T07:41:19.053Z,35.10
2022-11-28T07:43:50.211Z,32.50
2022-11-28T07:46:19.975Z,38.15
2022-11-28T07:48:48.945Z,37.05
2022-11-28T07:51:19.703Z,29.35
2022-11-28T07:53:48.266Z,38.60
2022-11-28T07:56:18.998Z,31.40
2022-11-28T07:58:48.266Z,40.33
2022-11-28T08:01:18.529Z,38.63
2022-11-28T08:03:47.376Z,35.42
2022-11-28T08:06:16.994Z,35.97
2022-11-28T08:08:47.033Z,35.75
2022-11-28T08:11:18.728Z,32.63
2022-11-28T08:13:47.417Z,37.38
2022-11-28T08:16:18.265Z,35.58
2022-11-28T08:18:46.979Z,35.63
2022-11-28T08:21:17.709Z,29.73
2022-11-28T08:23:46.229Z,35.33
2022-11-28T08:26:15.925Z,40.75
2022-11-28T08:28:45.367Z,36.58
2022-11-28T08:31:14.917Z,33.67
2022-11-28T08:33:43.309Z,33.25
2022-11-28T08:36:13.266Z,36.28
2022-11-28T08:38:47.040Z,38.15
2022-11-28T08:41:23.379Z,33.00
2022-11-28T08:43:52.577Z,37.03
2022-11-28T08:46:22.371Z,34.08
2022-11-28T08:48:52.096Z,34.30
2022-11-28T08:51:23.935Z,37.30
2022-11-28T08:53:59.035Z,31.08
2022-11-28T08:56:27.725Z,28.35
2022-11-28T08:58:57.056Z,38.42
2022-11-28T09:01:26.638Z,31.25
2022-11-28T09:03:55.883Z,39.13
2022-11-28T09:06:24.547Z,40.38
2022-11-28T09:08:53.503Z,33.92
2022-11-28T09:11:22.546Z,32.13
2022-11-28T09:13:50.758Z,33.80
2022-11-28T09:16:20.974Z,38.92
2022-11-28T09:18:48.859Z,31.30
2022-11-28T09:21:16.983Z,38.80
2022-11-28T09:23:45.866Z,34.85
2022-11-28T09:26:15.618Z,28.75
2022-11-28T09:28:44.362Z,32.25
2022-11-28T09:31:13.693Z,25.70
2022-11-28T09:33:43.743Z,26.13
2022-11-28T09:36:14.030Z,26.58
2022-11-28T09:38:42.496Z,26.50
2022-11-28T09:41:40.509Z,26.92
2022-11-28T09:44:13.497Z,28.85
2022-11-28T09:46:42.332Z,30.83
2022-11-28T09:49:24.605Z,28.25
2022-11-28T09:51:56.208Z,33.75
2022-11-28T09:54:33.458Z,30.40
2022-11-28T09:57:04.250Z,35.58
2022-11-28T09:59:32.734Z,37.67
2022-11-28T10:02:08.738Z,35.58
2022-11-28T10:04:43.057Z,34.05
2022-11-28T10:07:20.552Z,32.47
2022-11-28T10:09:58.253Z,37.78
2022-11-28T10:12:44.528Z,33.63
2022-11-28T10:15:32.041Z,32.72
2022-11-28T10:18:11.289Z,31.70
2022-11-28T10:20:44.424Z,30.40
2022-11-28T10:23:17.480Z,41.97
2022-11-28T10:25:50.423Z,37.20
2022-11-28T10:28:23.191Z,41.38
2022-11-28T10:30:58.853Z,32.42
2022-11-28T10:33:31.040Z,33.00
2022-11-28T10:36:02.650Z,33.92
2022-11-28T10:38:34.151Z,34.58
2022-11-28T10:41:09.244Z,32.83
2022-11-28T10:43:45.088Z,35.25
2022-11-28T10:46:50.192Z,36.53
2022-11-28T10:49:31.325Z,41.30
2022-11-28T10:52:10.659Z,34.70
2022-11-28T10:55:00.593Z,38.95
2022-11-28T10:57:36.203Z,33.78
2022-11-28T11:00:10.684Z,36.50
2022-11-28T11:02:42.349Z,38.92
2022-11-28T11:05:14.517Z,37.38
2022-11-28T11:07:50.488Z,33.13
2022-11-28T11:10:20.414Z,32.47
2022-11-28T11:12:52.108Z,35.22
2022-11-28T11:15:25.773Z,38.05
2022-11-28T11:17:53.642Z,34.45
2022-11-28T11:20:34.716Z,33.10
2022-11-28T11:23:13.977Z,35.85
2022-11-28T11:25:49.848Z,32.15
2022-11-28T11:28:33.286Z,34.90
2022-11-28T11:31:03.542Z,37.67
2022-11-28T11:33:39.281Z,33.88
2022-11-28T11:36:23.127Z,39.42
2022-11-28T11:38:52.550Z,33.70
2022-11-28T11:41:29.515Z,36.67
2022-11-28T11:43:57.779Z,34.83
2022-11-28T11:46:25.640Z,34.58
2022-11-28T11:48:54.362Z,33.55
2022-11-28T11:51:25.987Z,26.98
2022-11-28T11:54:07.042Z,36.03
2022-11-28T11:56:38.843Z,35.92
2022-11-28T11:59:15.228Z,35.13
2022-11-28T12:01:44.580Z,35.30
2022-11-28T12:04:43.825Z,37.97
2022-11-28T12:07:21.336Z,32.33
2022-11-28T12:09:54.811Z,36.05
2022-11-28T12:12:25.899Z,31.48
2022-11-28T12:14:53.728Z,29.35
2022-11-28T12:17:48.799Z,32.17
2022-11-28T12:20:38.735Z,35.20
2022-11-28T12:23:43.820Z,30.48
2022-11-28T12:26:20.069Z,28.33
2022-11-28T12:29:09.341Z,32.67
2022-11-28T12:31:48.770Z,26.85
2022-11-28T12:34:26.733Z,27.15
2022-11-28T12:37:03.954Z,30.23
2022-11-28T12:39:40.305Z,28.95
2022-11-28T12:42:28.426Z,31.30
2022-11-28T12:45:30.605Z,29.15
2022-11-28T12:48:09.829Z,29.77
2022-11-28T12:50:40.563Z,30.75
2022-11-28T12:53:39.362Z,28.73
2022-11-28T12:56:17.942Z,29.20
2022-11-28T12:58:54.487Z,30.00
2022-11-28T13:01:37.502Z,28.10
2022-11-28T13:04:18.470Z,28.52
2022-11-28T13:06:56.377Z,30.75
2022-11-28T13:09:31.653Z,31.98
2022-11-28T13:12:15.372Z,32.22
2022-11-28T13:14:52.227Z,32.33
2022-11-28T13:17:35.776Z,30.60
2022-11-28T13:22:47.526Z,32.58
2022-11-28T13:25:25.778Z,32.45
2022-11-28T13:27:59.770Z,31.95
2022-11-28T13:30:33.460Z,29.80
2022-11-28T13:33:08.566Z,33.08
2022-11-28T13:35:37.141Z,32.63
2022-11-28T13:41:22.642Z,34.17
2022-11-28T13:44:03.820Z,33.97
2022-11-28T13:46:35.087Z,37.33
2022-11-28T13:49:20.499Z,36.63
2022-11-28T13:51:49.141Z,32.28
2022-11-28T13:54:48.829Z,34.83
2022-11-28T13:57:36.827Z,36.65
2022-11-28T14:00:21.208Z,37.60
2022-11-28T14:02:54.174Z,34.63
2022-11-28T14:05:29.569Z,42.58
2022-11-28T14:07:59.483Z,34.85
2022-11-28T14:10:53.631Z,39.33
2022-11-28T14:16:29.675Z,30.27
2022-11-28T14:19:14.034Z,34.10
2022-11-28T14:21:54.330Z,34.70
2022-11-28T14:24:34.961Z,36.92
2022-11-28T14:27:06.285Z,34.60
2022-11-28T14:29:38.263Z,39.75
2022-11-28T14:32:29.109Z,38.38
2022-11-28T14:34:56.943Z,40.33
2022-11-28T14:37:57.483Z,42.63
2022-11-28T14:41:05.454Z,43.58
2022-11-28T14:43:36.261Z,48.80
2022-11-28T14:46:29.571Z,50.55
2022-11-28T14:49:29.544Z,40.92
2022-11-28T14:52:41.105Z,43.70
2022-11-28T14:55:21.817Z,49.45
2022-11-28T14:57:56.857Z,53.10
2022-11-28T15:00:27.791Z,49.60
2022-11-28T15:03:11.572Z,48.95
2022-11-28T15:05:45.202Z,43.23
2022-11-28T15:08:29.651Z,54.28
2022-11-28T15:11:11.626Z,49.88
2022-11-28T15:13:55.866Z,53.72
2022-11-28T15:16:24.881Z,59.85
2022-11-28T15:18:59.413Z,51.65
2022-11-28T15:21:29.092Z,50.55
2022-11-28T15:23:58.327Z,49.08
2022-11-28T15:26:29.575Z,54.45
2022-11-28T15:29:11.155Z,50.05
2022-11-28T15:31:39.183Z,50.80
2022-11-28T15:34:09.900Z,49.00
2022-11-28T15:36:40.276Z,46.75
2022-11-28T15:39:31.813Z,47.97
2022-11-28T15:42:02.697Z,50.08
2022-11-28T15:44:31.415Z,47.85
2022-11-28T15:46:59.680Z,57.13
2022-11-28T15:49:30.572Z,53.30
2022-11-28T15:52:02.936Z,46.63
2022-11-28T15:54:42.639Z,45.45
2022-11-28T15:57:20.362Z,49.33
2022-11-28T15:59:48.558Z,46.47
2022-11-28T16:02:23.566Z,56.03
2022-11-28T16:04:56.077Z,47.13
2022-11-28T16:07:23.971Z,51.97
2022-11-28T16:09:59.381Z,47.30
2022-11-28T16:12:28.612Z,45.42
2022-11-28T16:15:01.724Z,48.95
2022-11-28T16:17:33.490Z,51.58
2022-11-28T16:20:03.596Z,48.90
2022-11-28T16:22:36.493Z,51.13
2022-11-28T16:25:23.375Z,54.72
2022-11-28T16:27:53.323Z,60.05
2022-11-28T16:30:36.788Z,55.67
2022-11-28T16:33:25.905Z,51.72
2022-11-28T16:35:53.871Z,48.58
2022-11-28T16:38:24.615Z,48.33
2022-11-28T16:41:00.889Z,56.15
2022-11-28T16:43:32.244Z,62.60
2022-11-28T16:46:01.470Z,52.53
2022-11-28T16:48:31.977Z,55.83
2022-11-28T16:51:30.385Z,52.53
2022-11-28T16:53:59.792Z,53.63
2022-11-28T16:56:43.862Z,59.22
2022-11-28T16:59:14.358Z,59.72
2022-11-28T17:01:43.838Z,59.88
2022-11-28T17:04:21.423Z,62.75
2022-11-28T17:06:49.920Z,63.50
2022-11-28T17:09:17.801Z,56.95
2022-11-28T17:11:51.691Z,56.22
2022-11-28T17:14:19.530Z,59.53
2022-11-28T17:16:47.402Z,59.38
2022-11-28T17:19:15.292Z,59.42
2022-11-28T17:21:45.971Z,58.20
2022-11-28T17:24:18.217Z,59.60
2022-11-28T17:26:47.463Z,63.08
2022-11-28T17:29:16.887Z,58.35
2022-11-28T17:31:46.831Z,60.38
2022-11-28T17:34:17.624Z,57.90
2022-11-28T17:36:45.902Z,66.93
2022-11-28T17:39:14.420Z,66.05
2022-11-28T17:41:43.156Z,63.35
2022-11-28T17:44:18.120Z,58.60
2022-11-28T17:46:46.232Z,62.97
2022-11-28T17:49:14.391Z,57.45
2022-11-28T17:51:43.114Z,61.47
2022-11-28T17:54:14.017Z,61.35
2022-11-28T17:56:42.088Z,70.40
2022-11-28T17:59:10.471Z,75.93
2022-11-28T18:01:40.429Z,64.93
2022-11-28T18:04:08.528Z,74.38
2022-11-28T18:06:36.701Z,60.85
2022-11-28T18:09:11.578Z,67.68
2022-11-28T18:11:40.671Z,60.58
2022-11-28T18:14:09.848Z,65.13
2022-11-28T18:16:40.142Z,65.68
2022-11-28T18:19:09.675Z,74.95
2022-11-28T18:21:38.409Z,67.97
2022-11-28T18:24:06.890Z,67.97
2022-11-28T18:26:35.981Z,68.13
2022-11-28T18:29:04.015Z,68.18
2022-11-28T18:31:33.493Z,66.57
2022-11-28T18:34:02.741Z,68.95
2022-11-28T18:36:37.866Z,60.20
2022-11-28T18:39:08.913Z,77.60
2022-11-28T18:41:36.915Z,78.57
2022-11-28T18:44:06.437Z,74.95
2022-11-28T18:46:35.590Z,73.80
2022-11-28T18:49:04.483Z,74.30
2022-11-28T18:51:36.706Z,72.72
2022-11-28T18:54:05.988Z,66.00
2022-11-28T18:56:36.132Z,74.85
2022-11-28T18:59:05.427Z,71.40
2022-11-28T19:01:36.671Z,72.90
2022-11-28T19:04:09.296Z,75.53
2022-11-28T19:06:40.464Z,70.35
2022-11-28T19:09:12.594Z,76.60
2022-11-28T19:11:41.690Z,69.82
2022-11-28T19:14:11.890Z,72.32
2022-11-28T19:16:40.334Z,69.05
2022-11-28T19:19:08.395Z,78.72
2022-11-28T19:21:38.866Z,68.15
2022-11-28T19:24:08.769Z,71.00
2022-11-28T19:26:38.098Z,66.07
2022-11-28T19:29:06.497Z,67.32
2022-11-28T19:31:36.664Z,72.53
2022-11-28T19:34:07.830Z,64.15
2022-11-28T19:36:39.447Z,60.78
2022-11-28T19:39:09.477Z,74.90
2022-11-28T19:41:37.815Z,69.78
2022-11-28T19:44:05.864Z,70.95
2022-11-28T19:46:35.670Z,75.93
2022-11-28T19:49:05.426Z,70.32
2022-11-28T19:51:34.249Z,67.57
2022-11-28T19:54:03.808Z,67.15
2022-11-28T19:56:34.439Z,72.68
2022-11-28T19:59:03.038Z,64.07
2022-11-28T20:01:30.945Z,60.63
2022-11-28T20:03:59.634Z,63.80
2022-11-28T20:06:29.780Z,66.70
2022-11-28T20:09:01.490Z,64.10
2022-11-28T20:11:32.364Z,65.78
2022-11-28T20:14:03.451Z,69.28
2022-11-28T20:16:34.455Z,66.10
2022-11-28T20:19:02.901Z,59.80
2022-11-28T20:21:31.974Z,60.42
2022-11-28T20:24:04.579Z,65.25
2022-11-28T20:26:37.698Z,64.95
2022-11-28T20:29:08.080Z,62.92
2022-11-28T20:31:38.028Z,67.07
2022-11-28T20:34:06.465Z,62.28
2022-11-28T20:36:36.390Z,58.53
2022-11-28T20:39:05.905Z,61.35
2022-11-28T20:41:34.556Z,56.83
2022-11-28T20:44:03.128Z,61.10
2022-11-28T20:46:35.448Z,65.47
2022-11-28T20:49:05.811Z,59.93
2022-11-28T20:51:35.527Z,67.95
2022-11-28T20:54:05.763Z,59.78
2022-11-28T20:56:51.695Z,65.75
2022-11-28T20:59:23.226Z,59.47
2022-11-28T21:01:52.595Z,59.80
2022-11-28T21:04:20.466Z,63.30
2022-11-28T21:06:49.187Z,66.15
2022-11-28T21:09:19.977Z,57.70
2022-11-28T21:11:58.150Z,66.35
2022-11-28T21:14:27.397Z,60.25
2022-11-28T21:16:57.250Z,67.90
2022-11-28T21:19:25.224Z,54.65
2022-11-28T21:21:53.197Z,63.17
2022-11-28T21:24:21.391Z,68.20
2022-11-28T21:26:53.337Z,62.80
2022-11-28T21:29:21.685Z,63.10
2022-11-28T21:31:49.704Z,59.50
2022-11-28T21:34:19.444Z,58.92
2022-11-28T21:36:48.337Z,61.92
2022-11-28T21:39:18.691Z,61.45
2022-11-28T21:41:46.964Z,65.22
2022-11-28T21:44:14.869Z,67.50
2022-11-28T21:46:43.792Z,64.28
2022-11-28T21:49:13.068Z,63.08
2022-11-28T21:51:42.603Z,57.35
2022-11-28T21:54:11.967Z,61.60
2022-11-28T21:56:40.078Z,61.00
2022-11-28T21:59:08.580Z,55.92
2022-11-28T22:01:36.877Z,55.33
2022-11-28T22:04:05.130Z,61.65
2022-11-28T22:06:33.766Z,58.50
2022-11-28T22:09:09.069Z,57.38
2022-11-28T22:11:38.618Z,57.53
2022-11-28T22:14:06.570Z,63.53
2022-11-28T22:16:35.055Z,55.75
2022-11-28T22:19:04.004Z,59.63
2022-11-28T22:24:22.873Z,58.15
2022-11-28T22:26:51.140Z,59.35
2022-11-28T22:29:19.764Z,61.22
2022-11-28T22:31:47.810Z,53.17
2022-11-28T22:34:15.736Z,59.90
2022-11-28T22:36:44.105Z,55.30
2022-11-28T22:39:12.460Z,56.45
2022-11-28T22:41:41.796Z,59.85
2022-11-28T22:44:11.614Z,56.88
2022-11-28T22:46:43.111Z,57.75
2022-11-28T22:49:12.004Z,56.17
2022-11-28T22:51:40.869Z,58.97
2022-11-28T22:54:12.821Z,59.10
2022-11-28T22:56:42.355Z,63.13
2022-11-28T22:59:13.438Z,69.97
2022-11-28T23:01:43.521Z,67.47
2022-11-28T23:04:12.285Z,68.82
2022-11-28T23:06:40.524Z,75.43
2022-11-28T23:09:11.413Z,66.90
2022-11-28T23:11:40.876Z,77.28
2022-11-28T23:14:13.190Z,71.53
2022-11-28T23:16:43.348Z,81.65
2022-11-28T23:19:13.694Z,82.97
2022-11-28T23:21:43.914Z,79.90
2022-11-28T23:24:14.496Z,74.40
2022-11-28T23:26:44.748Z,80.80
2022-11-28T23:29:15.481Z,78.65
2022-11-28T23:31:44.636Z,76.68
2022-11-28T23:34:12.831Z,84.32
2022-11-28T23:36:43.324Z,86.40
2022-11-28T23:39:13.753Z,70.03
2022-11-28T23:41:42.176Z,79.25
2022-11-28T23:44:11.408Z,77.65
2022-11-28T23:46:41.114Z,72.80
2022-11-28T23:49:10.003Z,71.93
2022-11-28T23:51:40.044Z,61.20
2022-11-28T23:54:08.527Z,70.32
2022-11-28T23:56:38.423Z,65.10
2022-11-28T23:59:08.827Z,66.80
